Airfield :
LOGIN :

Register | Disclaimer

   EN    FR    IT 

 










Legend :    VFR   Marginal VFR   IFR   Intensive IFR   Very Intensive IFR
Visi :
Ceiling :
>= 8 km
>= 3000ft
5 to 8 km
1000 to 3000 ft
1500m to 5 km
500 to 1000 ft
800 to 1500m
200 to 500 ft
< 800m
< 200 ft
Symbols :   Thunderstorms  Fog  Heavy snow  Heavy precipitations  Wind > 20 kt
SIGMETs :     Misc.  Thunderstorms  Icing  Turbulence  Mountain Waves  Volcanic Ashes






- Airport Elevation : 1649 ft
- IATA code : HHN


EDFH - Frankfurt-Hahn Rhineland-Palatinate

CURRENT METAR :
  • 161750Z 18006KT 9999 FEW014 M04/M06 Q1018

EXPIRED METARs :
  • 161720Z 21008KT 9999 FEW012 M03/M06 Q1019
  • 161650Z 21009KT 9999 SCT020 M03/M06 Q1019
  • 161620Z 20008KT CAVOK M03/M06 Q1020
  • 161550Z 20008KT CAVOK M03/M06 Q1020
  • 161520Z 21008KT 9999 FEW021 M03/M06 Q1020

TAF TAF EDFH
Valid from the 16 at 18:00 until the 17 at 18:00 UTC


161700Z 1618/1718 19008KT 8000 BKN015
BECMG 1618/1620 3000 -SN BR BKN005
PROB30
TEMPO 1619/1701 0600 SN BKN001
BECMG 1701/1703 26004KT
TEMPO 1701/1712 2000 -SN BR BKN003
BECMG 1710/1712 28009KT
PROB30
TEMPO 1712/1718 2000 -FZDZ BR BKN003



MET'MAP, your aeronautical weather chart ! - Copyright ORBIFLY December 2007 - Disclaimer

ORBIFLY MET'MAP TEAM :

Programming & Development : Alexandra Zaïnal
Concept & original design : Baudouin d'Aumeries
Assistance for programming : Marc-Olivier Méhu
Technical & hardware support : Manuel Goepfert

Contact : metmap@orbifly.com




SOURCES & CREDITS :

   NOAA